createdAt,value
2018-09-27T00:07:19.913Z,1011.45
2018-09-27T00:17:19.878Z,1011.30
2018-09-27T00:27:19.884Z,1011.28
2018-09-27T00:37:19.884Z,1011.23
2018-09-27T00:47:19.944Z,1011.15
2018-09-27T00:57:19.854Z,1011.13
2018-09-27T01:07:20.974Z,1011.02
2018-09-27T01:17:19.896Z,1010.93
2018-09-27T01:27:19.983Z,1010.95
2018-09-27T01:37:19.859Z,1010.84
2018-09-27T01:47:19.909Z,1010.93
2018-09-27T01:57:19.848Z,1010.87
2018-09-27T02:07:19.927Z,1010.75
2018-09-27T02:17:19.867Z,1010.72
2018-09-27T02:27:19.935Z,1010.60
2018-09-27T02:37:19.898Z,1010.52
2018-09-27T02:47:20.942Z,1010.37
2018-09-27T02:57:19.825Z,1010.33
2018-09-27T03:07:19.844Z,1010.26
2018-09-27T03:17:19.850Z,1010.28
2018-09-27T03:27:19.876Z,1010.01
2018-09-27T03:37:19.882Z,1009.98
2018-09-27T03:47:19.881Z,1010.05
2018-09-27T03:57:19.841Z,1009.95
2018-09-27T04:07:19.857Z,1009.92
2018-09-27T04:17:19.803Z,1009.84
2018-09-27T04:27:19.819Z,1009.79
2018-09-27T04:37:19.822Z,1009.75
2018-09-27T04:47:19.819Z,1009.69
2018-09-27T04:57:19.848Z,1009.63
2018-09-27T05:07:19.941Z,1009.54
2018-09-27T05:17:20.034Z,1009.50
2018-09-27T05:27:20.013Z,1009.34
2018-09-27T05:37:23.646Z,1009.37
2018-09-27T05:47:19.831Z,1009.31
2018-09-27T05:57:20.531Z,1009.32
2018-09-27T06:07:19.763Z,1009.14
2018-09-27T06:17:20.599Z,1009.16
2018-09-27T06:27:19.760Z,1009.01
2018-09-27T06:37:19.912Z,1008.97
2018-09-27T06:47:19.828Z,1009.04
2018-09-27T06:57:20.108Z,1009.08
2018-09-27T07:07:19.958Z,1009.02
2018-09-27T07:17:19.946Z,1008.84
2018-09-27T07:27:19.928Z,1009.04
2018-09-27T07:37:20.804Z,1008.97
2018-09-27T07:47:19.984Z,1008.95
2018-09-27T07:57:20.037Z,1009.00
2018-09-27T08:07:20.014Z,1008.89
2018-09-27T08:17:20.016Z,1008.89
2018-09-27T08:27:19.883Z,1008.90
2018-09-27T08:37:19.941Z,1008.81
2018-09-27T08:47:19.853Z,1008.64
2018-09-27T08:57:19.930Z,1008.50
2018-09-27T09:07:19.992Z,1008.43
2018-09-27T09:17:19.979Z,1008.31
2018-09-27T09:27:19.857Z,1008.24
2018-09-27T09:37:19.893Z,1008.04
2018-09-27T09:47:20.240Z,1007.85
2018-09-27T09:57:19.922Z,1007.79
2018-09-27T10:07:20.024Z,1007.65
2018-09-27T10:17:20.033Z,1007.58
2018-09-27T10:27:20.026Z,1007.55
2018-09-27T10:37:19.955Z,1007.41
2018-09-27T10:47:20.157Z,1007.33
2018-09-27T10:57:20.056Z,1007.25
2018-09-27T11:07:19.932Z,1007.13
2018-09-27T11:17:19.921Z,1006.97
2018-09-27T11:27:19.910Z,1006.72
2018-09-27T11:37:19.960Z,1006.58
2018-09-27T11:47:20.006Z,1006.42
2018-09-27T11:57:19.897Z,1006.11
2018-09-27T12:07:20.057Z,1006.01
2018-09-27T12:17:20.043Z,1005.82
2018-09-27T12:27:20.014Z,1005.69
2018-09-27T12:37:20.209Z,1005.40
